sensor_id;sensor_type;location;lat;lon;timestamp;P1;durP1;ratioP1;P2;durP2;ratioP2
9115;SDS011;4593;53.652;10.168;2023-03-01T00:01:22;6.43;;;4.47;;
9115;SDS011;4593;53.652;10.168;2023-03-01T00:03:50;6.65;;;4.40;;
9115;SDS011;4593;53.652;10.168;2023-03-01T00:06:16;5.95;;;4.18;;
9115;SDS011;4593;53.652;10.168;2023-03-01T00:08:42;6.18;;;4.78;;
9115;SDS011;4593;53.652;10.168;2023-03-01T00:11:10;5.60;;;4.83;;
9115;SDS011;4593;53.652;10.168;2023-03-01T00:13:51;8.43;;;4.90;;
9115;SDS011;4593;53.652;10.168;2023-03-01T00:16:20;5.97;;;4.20;;
9115;SDS011;4593;53.652;10.168;2023-03-01T00:18:47;6.28;;;4.15;;
9115;SDS011;4593;53.652;10.168;2023-03-01T00:21:13;9.53;;;4.00;;
9115;SDS011;4593;53.652;10.168;2023-03-01T00:23:39;3.70;;;3.40;;
9115;SDS011;4593;53.652;10.168;2023-03-01T00:26:06;4.65;;;4.25;;
9115;SDS011;4593;53.652;10.168;2023-03-01T00:28:33;3.80;;;3.40;;
9115;SDS011;4593;53.652;10.168;2023-03-01T00:31:09;11.67;;;4.43;;
9115;SDS011;4593;53.652;10.168;2023-03-01T00:33:39;6.47;;;3.65;;
9115;SDS011;4593;53.652;10.168;2023-03-01T00:36:05;4.83;;;3.83;;
9115;SDS011;4593;53.652;10.168;2023-03-01T00:38:35;4.60;;;3.80;;
9115;SDS011;4593;53.652;10.168;2023-03-01T00:41:05;4.95;;;4.07;;
9115;SDS011;4593;53.652;10.168;2023-03-01T00:43:32;3.85;;;3.50;;
9115;SDS011;4593;53.652;10.168;2023-03-01T00:46:02;4.70;;;3.83;;
9115;SDS011;4593;53.652;10.168;2023-03-01T00:48:32;4.93;;;4.07;;
9115;SDS011;4593;53.652;10.168;2023-03-01T00:51:03;6.97;;;4.85;;
9115;SDS011;4593;53.652;10.168;2023-03-01T00:53:33;7.18;;;5.10;;
9115;SDS011;4593;53.652;10.168;2023-03-01T00:56:00;5.68;;;4.75;;
9115;SDS011;4593;53.652;10.168;2023-03-01T00:58:26;11.10;;;6.17;;
9115;SDS011;4593;53.652;10.168;2023-03-01T01:00:51;12.77;;;6.00;;
9115;SDS011;4593;53.652;10.168;2023-03-01T01:03:20;7.90;;;5.93;;
9115;SDS011;4593;53.652;10.168;2023-03-01T01:05:47;12.05;;;5.57;;
9115;SDS011;4593;53.652;10.168;2023-03-01T01:08:12;5.33;;;4.83;;
9115;SDS011;4593;53.652;10.168;2023-03-01T01:10:38;7.57;;;5.07;;
9115;SDS011;4593;53.652;10.168;2023-03-01T01:13:04;4.93;;;4.27;;
9115;SDS011;4593;53.652;10.168;2023-03-01T01:15:33;6.30;;;5.40;;
9115;SDS011;4593;53.652;10.168;2023-03-01T01:17:59;7.53;;;5.13;;
9115;SDS011;4593;53.652;10.168;2023-03-01T01:20:25;5.00;;;4.38;;
9115;SDS011;4593;53.652;10.168;2023-03-01T01:22:51;6.50;;;4.53;;
9115;SDS011;4593;53.652;10.168;2023-03-01T01:25:17;5.57;;;4.47;;
9115;SDS011;4593;53.652;10.168;2023-03-01T01:27:43;5.77;;;5.17;;
9115;SDS011;4593;53.652;10.168;2023-03-01T01:30:09;4.97;;;4.27;;
9115;SDS011;4593;53.652;10.168;2023-03-01T01:32:35;8.27;;;4.88;;
9115;SDS011;4593;53.652;10.168;2023-03-01T01:35:00;6.53;;;4.10;;
9115;SDS011;4593;53.652;10.168;2023-03-01T01:37:26;6.90;;;4.67;;
9115;SDS011;4593;53.652;10.168;2023-03-01T01:39:56;4.78;;;4.38;;
9115;SDS011;4593;53.652;10.168;2023-03-01T01:42:24;5.90;;;4.80;;
9115;SDS011;4593;53.652;10.168;2023-03-01T01:45:15;4.72;;;4.32;;
9115;SDS011;4593;53.652;10.168;2023-03-01T01:47:57;4.88;;;4.28;;
9115;SDS011;4593;53.652;10.168;2023-03-01T01:50:28;4.90;;;4.25;;
9115;SDS011;4593;53.652;10.168;2023-03-01T01:53:03;5.85;;;4.22;;
9115;SDS011;4593;53.652;10.168;2023-03-01T01:55:31;7.78;;;4.22;;
9115;SDS011;4593;53.652;10.168;2023-03-01T01:57:58;4.70;;;3.77;;
9115;SDS011;4593;53.652;10.168;2023-03-01T02:00:29;6.25;;;3.75;;
9115;SDS011;4593;53.652;10.168;2023-03-01T02:03:06;3.85;;;3.53;;
9115;SDS011;4593;53.652;10.168;2023-03-01T02:08:24;5.05;;;4.07;;
9115;SDS011;4593;53.652;10.168;2023-03-01T02:10:52;7.10;;;3.75;;
9115;SDS011;4593;53.652;10.168;2023-03-01T02:13:19;6.97;;;4.45;;
9115;SDS011;4593;53.652;10.168;2023-03-01T02:15:45;8.93;;;3.87;;
9115;SDS011;4593;53.652;10.168;2023-03-01T02:18:12;7.18;;;4.07;;
9115;SDS011;4593;53.652;10.168;2023-03-01T02:23:17;3.92;;;3.53;;
9115;SDS011;4593;53.652;10.168;2023-03-01T02:26:17;6.43;;;4.85;;
9115;SDS011;4593;53.652;10.168;2023-03-01T02:28:54;5.80;;;4.45;;
9115;SDS011;4593;53.652;10.168;2023-03-01T02:31:20;5.10;;;4.57;;
9115;SDS011;4593;53.652;10.168;2023-03-01T02:34:06;6.20;;;3.67;;
9115;SDS011;4593;53.652;10.168;2023-03-01T02:36:38;3.83;;;3.42;;
9115;SDS011;4593;53.652;10.168;2023-03-01T02:39:06;5.13;;;3.30;;
9115;SDS011;4593;53.652;10.168;2023-03-01T02:41:39;8.07;;;4.57;;
9115;SDS011;4593;53.652;10.168;2023-03-01T02:44:08;3.42;;;3.22;;
9115;SDS011;4593;53.652;10.168;2023-03-01T02:46:34;7.70;;;3.73;;
9115;SDS011;4593;53.652;10.168;2023-03-01T02:57:33;4.45;;;3.70;;
9115;SDS011;4593;53.652;10.168;2023-03-01T03:00:03;4.47;;;3.88;;
9115;SDS011;4593;53.652;10.168;2023-03-01T03:02:32;5.55;;;3.58;;
9115;SDS011;4593;53.652;10.168;2023-03-01T03:05:08;3.65;;;3.35;;
9115;SDS011;4593;53.652;10.168;2023-03-01T03:07:40;4.80;;;4.32;;
9115;SDS011;4593;53.652;10.168;2023-03-01T03:10:09;5.80;;;3.58;;
9115;SDS011;4593;53.652;10.168;2023-03-01T03:12:41;4.97;;;3.35;;
9115;SDS011;4593;53.652;10.168;2023-03-01T03:15:08;4.60;;;4.13;;
9115;SDS011;4593;53.652;10.168;2023-03-01T03:17:38;6.18;;;3.67;;
9115;SDS011;4593;53.652;10.168;2023-03-01T03:20:05;5.15;;;3.67;;
9115;SDS011;4593;53.652;10.168;2023-03-01T03:22:36;6.30;;;4.38;;
9115;SDS011;4593;53.652;10.168;2023-03-01T03:25:06;3.90;;;3.60;;
9115;SDS011;4593;53.652;10.168;2023-03-01T03:27:35;4.80;;;4.30;;
9115;SDS011;4593;53.652;10.168;2023-03-01T03:30:03;3.53;;;3.22;;
9115;SDS011;4593;53.652;10.168;2023-03-01T03:32:34;4.50;;;3.97;;
9115;SDS011;4593;53.652;10.168;2023-03-01T03:35:00;4.10;;;3.80;;
9115;SDS011;4593;53.652;10.168;2023-03-01T03:37:26;4.93;;;3.70;;
9115;SDS011;4593;53.652;10.168;2023-03-01T03:40:11;3.60;;;3.30;;
9115;SDS011;4593;53.652;10.168;2023-03-01T03:42:40;4.78;;;3.83;;
9115;SDS011;4593;53.652;10.168;2023-03-01T03:45:06;5.50;;;4.28;;
9115;SDS011;4593;53.652;10.168;2023-03-01T03:47:32;4.05;;;3.63;;
9115;SDS011;4593;53.652;10.168;2023-03-01T03:49:57;4.60;;;4.20;;
9115;SDS011;4593;53.652;10.168;2023-03-01T03:52:23;4.87;;;4.33;;
9115;SDS011;4593;53.652;10.168;2023-03-01T03:54:49;3.83;;;3.47;;
9115;SDS011;4593;53.652;10.168;2023-03-01T03:57:14;5.70;;;4.63;;
9115;SDS011;4593;53.652;10.168;2023-03-01T03:59:40;4.37;;;3.90;;
9115;SDS011;4593;53.652;10.168;2023-03-01T04:02:05;8.20;;;4.60;;
9115;SDS011;4593;53.652;10.168;2023-03-01T04:04:33;4.78;;;4.20;;
9115;SDS011;4593;53.652;10.168;2023-03-01T04:06:59;4.30;;;3.90;;
9115;SDS011;4593;53.652;10.168;2023-03-01T04:09:25;4.60;;;4.17;;
9115;SDS011;4593;53.652;10.168;2023-03-01T04:11:50;4.27;;;3.87;;
9115;SDS011;4593;53.652;10.168;2023-03-01T04:14:16;4.87;;;3.97;;
9115;SDS011;4593;53.652;10.168;2023-03-01T04:16:42;5.10;;;3.60;;
9115;SDS011;4593;53.652;10.168;2023-03-01T04:19:07;8.03;;;4.73;;
9115;SDS011;4593;53.652;10.168;2023-03-01T04:21:34;4.85;;;4.20;;
9115;SDS011;4593;53.652;10.168;2023-03-01T04:24:01;8.32;;;4.55;;
9115;SDS011;4593;53.652;10.168;2023-03-01T04:26:28;4.75;;;4.30;;
9115;SDS011;4593;53.652;10.168;2023-03-01T04:28:54;5.43;;;4.20;;
9115;SDS011;4593;53.652;10.168;2023-03-01T04:31:20;5.67;;;4.47;;
9115;SDS011;4593;53.652;10.168;2023-03-01T04:33:53;5.03;;;4.50;;
9115;SDS011;4593;53.652;10.168;2023-03-01T04:36:21;8.65;;;5.38;;
9115;SDS011;4593;53.652;10.168;2023-03-01T04:38:49;7.30;;;4.03;;
9115;SDS011;4593;53.652;10.168;2023-03-01T04:41:16;7.53;;;5.17;;
9115;SDS011;4593;53.652;10.168;2023-03-01T04:43:43;10.02;;;5.00;;
9115;SDS011;4593;53.652;10.168;2023-03-01T04:46:11;5.80;;;5.30;;
9115;SDS011;4593;53.652;10.168;2023-03-01T04:48:38;6.20;;;4.80;;
9115;SDS011;4593;53.652;10.168;2023-03-01T04:51:05;8.15;;;4.63;;
9115;SDS011;4593;53.652;10.168;2023-03-01T04:53:31;5.53;;;4.18;;
9115;SDS011;4593;53.652;10.168;2023-03-01T04:55:57;5.85;;;4.38;;
9115;SDS011;4593;53.652;10.168;2023-03-01T04:58:24;6.40;;;5.35;;
9115;SDS011;4593;53.652;10.168;2023-03-01T05:00:51;5.10;;;4.60;;
9115;SDS011;4593;53.652;10.168;2023-03-01T05:03:18;5.63;;;4.57;;
9115;SDS011;4593;53.652;10.168;2023-03-01T05:05:44;9.13;;;4.77;;
9115;SDS011;4593;53.652;10.168;2023-03-01T05:08:11;5.07;;;4.30;;
9115;SDS011;4593;53.652;10.168;2023-03-01T05:10:42;6.72;;;4.57;;
9115;SDS011;4593;53.652;10.168;2023-03-01T05:13:16;6.97;;;4.72;;
9115;SDS011;4593;53.652;10.168;2023-03-01T05:15:53;5.80;;;4.00;;
9115;SDS011;4593;53.652;10.168;2023-03-01T05:18:24;5.37;;;4.60;;
9115;SDS011;4593;53.652;10.168;2023-03-01T05:20:53;4.18;;;3.63;;
9115;SDS011;4593;53.652;10.168;2023-03-01T05:23:23;7.65;;;4.82;;
9115;SDS011;4593;53.652;10.168;2023-03-01T05:25:49;9.00;;;5.35;;
9115;SDS011;4593;53.652;10.168;2023-03-01T05:28:17;8.67;;;5.07;;
9115;SDS011;4593;53.652;10.168;2023-03-01T05:30:44;7.27;;;4.97;;
9115;SDS011;4593;53.652;10.168;2023-03-01T05:33:10;6.47;;;4.63;;
9115;SDS011;4593;53.652;10.168;2023-03-01T05:35:41;6.97;;;5.07;;
9115;SDS011;4593;53.652;10.168;2023-03-01T05:38:10;7.40;;;4.78;;
9115;SDS011;4593;53.652;10.168;2023-03-01T05:40:43;6.63;;;5.10;;
9115;SDS011;4593;53.652;10.168;2023-03-01T05:43:10;8.47;;;5.00;;
9115;SDS011;4593;53.652;10.168;2023-03-01T05:45:37;7.43;;;5.10;;
9115;SDS011;4593;53.652;10.168;2023-03-01T05:48:05;6.57;;;4.60;;
9115;SDS011;4593;53.652;10.168;2023-03-01T05:50:35;4.80;;;4.30;;
9115;SDS011;4593;53.652;10.168;2023-03-01T05:53:04;6.47;;;5.10;;
9115;SDS011;4593;53.652;10.168;2023-03-01T05:55:34;5.23;;;4.73;;
9115;SDS011;4593;53.652;10.168;2023-03-01T05:58:01;5.80;;;5.00;;
9115;SDS011;4593;53.652;10.168;2023-03-01T06:00:28;7.25;;;4.68;;
9115;SDS011;4593;53.652;10.168;2023-03-01T06:02:55;6.22;;;4.95;;
9115;SDS011;4593;53.652;10.168;2023-03-01T06:05:21;9.10;;;5.30;;
9115;SDS011;4593;53.652;10.168;2023-03-01T06:07:47;8.73;;;5.97;;
9115;SDS011;4593;53.652;10.168;2023-03-01T06:10:15;7.17;;;5.53;;
9115;SDS011;4593;53.652;10.168;2023-03-01T06:12:42;8.23;;;5.70;;
9115;SDS011;4593;53.652;10.168;2023-03-01T06:15:09;6.28;;;5.53;;
9115;SDS011;4593;53.652;10.168;2023-03-01T06:17:38;6.68;;;5.07;;
9115;SDS011;4593;53.652;10.168;2023-03-01T06:20:06;10.40;;;5.30;;
9115;SDS011;4593;53.652;10.168;2023-03-01T06:22:39;13.23;;;6.17;;
9115;SDS011;4593;53.652;10.168;2023-03-01T06:25:06;10.30;;;5.57;;
9115;SDS011;4593;53.652;10.168;2023-03-01T06:27:32;15.07;;;5.88;;
9115;SDS011;4593;53.652;10.168;2023-03-01T06:29:58;9.17;;;6.17;;
9115;SDS011;4593;53.652;10.168;2023-03-01T06:32:23;10.03;;;6.40;;
9115;SDS011;4593;53.652;10.168;2023-03-01T06:34:49;10.93;;;6.20;;
9115;SDS011;4593;53.652;10.168;2023-03-01T06:37:15;8.73;;;6.03;;
9115;SDS011;4593;53.652;10.168;2023-03-01T06:39:41;7.57;;;5.63;;
9115;SDS011;4593;53.652;10.168;2023-03-01T06:42:07;11.87;;;6.27;;
9115;SDS011;4593;53.652;10.168;2023-03-01T06:44:35;11.33;;;6.97;;
9115;SDS011;4593;53.652;10.168;2023-03-01T06:47:00;12.70;;;5.97;;
9115;SDS011;4593;53.652;10.168;2023-03-01T06:49:27;11.10;;;6.90;;
9115;SDS011;4593;53.652;10.168;2023-03-01T06:51:52;12.97;;;7.50;;
9115;SDS011;4593;53.652;10.168;2023-03-01T06:54:18;10.40;;;7.03;;
9115;SDS011;4593;53.652;10.168;2023-03-01T06:56:47;11.40;;;7.67;;
9115;SDS011;4593;53.652;10.168;2023-03-01T06:59:14;11.43;;;6.07;;
9115;SDS011;4593;53.652;10.168;2023-03-01T07:01:40;13.80;;;7.23;;
9115;SDS011;4593;53.652;10.168;2023-03-01T07:04:06;11.40;;;6.77;;
9115;SDS011;4593;53.652;10.168;2023-03-01T07:06:31;10.97;;;7.43;;
9115;SDS011;4593;53.652;10.168;2023-03-01T07:08:57;8.43;;;6.63;;
9115;SDS011;4593;53.652;10.168;2023-03-01T07:11:23;12.83;;;7.80;;
9115;SDS011;4593;53.652;10.168;2023-03-01T07:13:48;9.80;;;6.63;;
9115;SDS011;4593;53.652;10.168;2023-03-01T07:16:14;11.27;;;6.70;;
9115;SDS011;4593;53.652;10.168;2023-03-01T07:18:40;11.93;;;7.13;;
9115;SDS011;4593;53.652;10.168;2023-03-01T07:21:11;13.17;;;7.83;;
9115;SDS011;4593;53.652;10.168;2023-03-01T07:23:38;15.50;;;6.93;;
9115;SDS011;4593;53.652;10.168;2023-03-01T07:26:04;12.60;;;6.30;;
9115;SDS011;4593;53.652;10.168;2023-03-01T07:28:30;10.10;;;6.00;;
9115;SDS011;4593;53.652;10.168;2023-03-01T07:31:00;12.33;;;7.07;;
9115;SDS011;4593;53.652;10.168;2023-03-01T07:33:27;10.00;;;6.27;;
9115;SDS011;4593;53.652;10.168;2023-03-01T07:35:59;8.80;;;6.03;;
9115;SDS011;4593;53.652;10.168;2023-03-01T07:38:26;10.90;;;7.40;;
9115;SDS011;4593;53.652;10.168;2023-03-01T07:40:53;9.57;;;6.13;;
9115;SDS011;4593;53.652;10.168;2023-03-01T07:43:19;10.77;;;6.87;;
9115;SDS011;4593;53.652;10.168;2023-03-01T07:45:45;9.30;;;6.70;;
9115;SDS011;4593;53.652;10.168;2023-03-01T07:48:11;7.60;;;6.00;;
9115;SDS011;4593;53.652;10.168;2023-03-01T07:50:37;9.63;;;6.53;;
9115;SDS011;4593;53.652;10.168;2023-03-01T07:53:03;9.80;;;7.07;;
9115;SDS011;4593;53.652;10.168;2023-03-01T07:55:29;8.27;;;6.87;;
9115;SDS011;4593;53.652;10.168;2023-03-01T07:57:55;11.03;;;7.10;;
9115;SDS011;4593;53.652;10.168;2023-03-01T08:00:20;14.83;;;7.43;;
9115;SDS011;4593;53.652;10.168;2023-03-01T08:02:46;12.93;;;7.63;;
9115;SDS011;4593;53.652;10.168;2023-03-01T08:05:12;13.33;;;6.97;;
9115;SDS011;4593;53.652;10.168;2023-03-01T08:07:37;12.53;;;7.10;;
9115;SDS011;4593;53.652;10.168;2023-03-01T08:10:03;13.80;;;8.03;;
9115;SDS011;4593;53.652;10.168;2023-03-01T08:12:29;8.37;;;6.67;;
9115;SDS011;4593;53.652;10.168;2023-03-01T08:14:55;9.27;;;7.07;;
9115;SDS011;4593;53.652;10.168;2023-03-01T08:17:21;11.50;;;7.30;;
9115;SDS011;4593;53.652;10.168;2023-03-01T08:19:47;11.80;;;7.90;;
9115;SDS011;4593;53.652;10.168;2023-03-01T08:22:13;12.20;;;7.70;;
9115;SDS011;4593;53.652;10.168;2023-03-01T08:24:39;15.20;;;9.27;;
9115;SDS011;4593;53.652;10.168;2023-03-01T08:27:04;10.53;;;7.67;;
9115;SDS011;4593;53.652;10.168;2023-03-01T08:29:31;13.03;;;7.93;;
9115;SDS011;4593;53.652;10.168;2023-03-01T08:31:57;10.13;;;7.73;;
9115;SDS011;4593;53.652;10.168;2023-03-01T08:34:23;12.83;;;7.60;;
9115;SDS011;4593;53.652;10.168;2023-03-01T08:36:48;11.13;;;7.60;;
9115;SDS011;4593;53.652;10.168;2023-03-01T08:39:17;16.13;;;8.33;;
9115;SDS011;4593;53.652;10.168;2023-03-01T08:41:44;9.83;;;7.43;;
9115;SDS011;4593;53.652;10.168;2023-03-01T08:44:10;16.00;;;8.77;;
9115;SDS011;4593;53.652;10.168;2023-03-01T08:46:38;12.83;;;7.97;;
9115;SDS011;4593;53.652;10.168;2023-03-01T08:49:09;10.37;;;7.90;;
9115;SDS011;4593;53.652;10.168;2023-03-01T08:51:38;15.90;;;8.70;;
9115;SDS011;4593;53.652;10.168;2023-03-01T08:54:04;11.63;;;7.97;;
9115;SDS011;4593;53.652;10.168;2023-03-01T08:56:50;10.73;;;8.07;;
9115;SDS011;4593;53.652;10.168;2023-03-01T08:59:16;19.33;;;8.80;;
9115;SDS011;4593;53.652;10.168;2023-03-01T09:01:42;15.57;;;8.40;;
9115;SDS011;4593;53.652;10.168;2023-03-01T09:04:11;8.70;;;6.70;;
9115;SDS011;4593;53.652;10.168;2023-03-01T09:06:37;14.17;;;7.73;;
9115;SDS011;4593;53.652;10.168;2023-03-01T09:09:04;11.37;;;8.80;;
9115;SDS011;4593;53.652;10.168;2023-03-01T09:11:31;10.43;;;7.93;;
9115;SDS011;4593;53.652;10.168;2023-03-01T09:13:57;14.37;;;9.37;;
9115;SDS011;4593;53.652;10.168;2023-03-01T09:16:23;11.13;;;8.43;;
9115;SDS011;4593;53.652;10.168;2023-03-01T09:18:49;14.10;;;9.17;;
9115;SDS011;4593;53.652;10.168;2023-03-01T09:21:17;15.67;;;8.70;;
9115;SDS011;4593;53.652;10.168;2023-03-01T09:23:44;13.17;;;8.30;;
9115;SDS011;4593;53.652;10.168;2023-03-01T09:26:11;13.27;;;8.33;;
9115;SDS011;4593;53.652;10.168;2023-03-01T09:28:44;11.13;;;7.53;;
9115;SDS011;4593;53.652;10.168;2023-03-01T09:31:10;9.23;;;7.60;;
9115;SDS011;4593;53.652;10.168;2023-03-01T09:33:38;12.83;;;8.10;;
9115;SDS011;4593;53.652;10.168;2023-03-01T09:36:05;12.20;;;8.97;;
9115;SDS011;4593;53.652;10.168;2023-03-01T09:38:35;12.73;;;8.13;;
9115;SDS011;4593;53.652;10.168;2023-03-01T09:41:00;13.50;;;8.07;;
9115;SDS011;4593;53.652;10.168;2023-03-01T09:43:31;14.47;;;8.63;;
9115;SDS011;4593;53.652;10.168;2023-03-01T09:46:04;13.73;;;8.63;;
9115;SDS011;4593;53.652;10.168;2023-03-01T09:48:37;11.60;;;7.30;;
9115;SDS011;4593;53.652;10.168;2023-03-01T09:51:30;12.27;;;8.33;;
9115;SDS011;4593;53.652;10.168;2023-03-01T09:53:58;9.83;;;7.57;;
9115;SDS011;4593;53.652;10.168;2023-03-01T10:01:59;10.97;;;7.97;;
9115;SDS011;4593;53.652;10.168;2023-03-01T10:04:32;12.67;;;7.43;;
9115;SDS011;4593;53.652;10.168;2023-03-01T10:07:20;10.40;;;7.43;;
9115;SDS011;4593;53.652;10.168;2023-03-01T10:10:06;16.03;;;7.07;;
9115;SDS011;4593;53.652;10.168;2023-03-01T10:12:35;14.97;;;8.77;;
9115;SDS011;4593;53.652;10.168;2023-03-01T10:20:45;13.00;;;7.93;;
9115;SDS011;4593;53.652;10.168;2023-03-01T10:23:16;11.93;;;7.10;;
9115;SDS011;4593;53.652;10.168;2023-03-01T10:30:50;7.13;;;5.57;;
9115;SDS011;4593;53.652;10.168;2023-03-01T10:33:23;9.77;;;6.23;;
9115;SDS011;4593;53.652;10.168;2023-03-01T10:35:57;10.77;;;5.77;;
9115;SDS011;4593;53.652;10.168;2023-03-01T10:38:23;14.37;;;6.57;;
9115;SDS011;4593;53.652;10.168;2023-03-01T10:40:51;9.10;;;6.23;;
9115;SDS011;4593;53.652;10.168;2023-03-01T10:43:20;7.33;;;5.60;;
9115;SDS011;4593;53.652;10.168;2023-03-01T10:45:47;9.03;;;5.47;;
9115;SDS011;4593;53.652;10.168;2023-03-01T10:48:14;7.00;;;4.60;;
9115;SDS011;4593;53.652;10.168;2023-03-01T10:53:24;5.47;;;4.27;;
9115;SDS011;4593;53.652;10.168;2023-03-01T10:58:34;9.63;;;6.10;;
9115;SDS011;4593;53.652;10.168;2023-03-01T11:01:03;7.00;;;4.60;;
9115;SDS011;4593;53.652;10.168;2023-03-01T11:03:42;4.87;;;3.77;;
9115;SDS011;4593;53.652;10.168;2023-03-01T11:08:38;10.60;;;5.23;;
9115;SDS011;4593;53.652;10.168;2023-03-01T11:13:35;6.43;;;4.17;;
9115;SDS011;4593;53.652;10.168;2023-03-01T11:16:05;6.80;;;4.67;;
9115;SDS011;4593;53.652;10.168;2023-03-01T11:18:34;7.43;;;4.80;;
9115;SDS011;4593;53.652;10.168;2023-03-01T11:21:00;6.70;;;5.07;;
9115;SDS011;4593;53.652;10.168;2023-03-01T11:23:28;9.90;;;4.27;;
9115;SDS011;4593;53.652;10.168;2023-03-01T11:25:55;7.57;;;4.67;;
9115;SDS011;4593;53.652;10.168;2023-03-01T11:28:25;10.13;;;5.43;;
9115;SDS011;4593;53.652;10.168;2023-03-01T11:30:55;8.00;;;4.90;;
9115;SDS011;4593;53.652;10.168;2023-03-01T11:35:57;7.07;;;5.40;;
9115;SDS011;4593;53.652;10.168;2023-03-01T11:38:32;5.43;;;3.97;;
9115;SDS011;4593;53.652;10.168;2023-03-01T11:51:45;6.43;;;4.50;;
9115;SDS011;4593;53.652;10.168;2023-03-01T11:54:39;8.13;;;4.43;;
9115;SDS011;4593;53.652;10.168;2023-03-01T12:05:48;4.50;;;3.83;;
9115;SDS011;4593;53.652;10.168;2023-03-01T12:08:41;8.97;;;3.90;;
9115;SDS011;4593;53.652;10.168;2023-03-01T12:16:58;5.47;;;4.27;;
9115;SDS011;4593;53.652;10.168;2023-03-01T12:53:00;7.67;;;4.87;;
9115;SDS011;4593;53.652;10.168;2023-03-01T12:55:31;6.23;;;4.03;;
9115;SDS011;4593;53.652;10.168;2023-03-01T13:09:17;8.27;;;4.30;;
9115;SDS011;4593;53.652;10.168;2023-03-01T13:11:48;6.93;;;4.43;;
9115;SDS011;4593;53.652;10.168;2023-03-01T13:16:46;4.90;;;3.80;;
9115;SDS011;4593;53.652;10.168;2023-03-01T13:21:45;7.50;;;4.47;;
9115;SDS011;4593;53.652;10.168;2023-03-01T13:27:25;7.73;;;3.93;;
9115;SDS011;4593;53.652;10.168;2023-03-01T13:29:58;7.70;;;4.37;;
9115;SDS011;4593;53.652;10.168;2023-03-01T13:35:00;7.87;;;4.40;;
9115;SDS011;4593;53.652;10.168;2023-03-01T13:37:33;7.20;;;4.63;;
9115;SDS011;4593;53.652;10.168;2023-03-01T13:42:49;7.07;;;4.23;;
9115;SDS011;4593;53.652;10.168;2023-03-01T13:48:11;5.23;;;4.50;;
9115;SDS011;4593;53.652;10.168;2023-03-01T13:50:49;9.30;;;4.93;;
9115;SDS011;4593;53.652;10.168;2023-03-01T13:53:18;5.40;;;4.50;;
9115;SDS011;4593;53.652;10.168;2023-03-01T13:56:09;6.10;;;4.97;;
9115;SDS011;4593;53.652;10.168;2023-03-01T13:58:44;6.93;;;4.73;;
9115;SDS011;4593;53.652;10.168;2023-03-01T14:01:25;7.73;;;5.27;;
9115;SDS011;4593;53.652;10.168;2023-03-01T14:03:55;5.97;;;4.40;;
9115;SDS011;4593;53.652;10.168;2023-03-01T14:06:26;6.93;;;4.57;;
9115;SDS011;4593;53.652;10.168;2023-03-01T14:09:09;4.77;;;3.80;;
9115;SDS011;4593;53.652;10.168;2023-03-01T14:14:23;5.17;;;3.60;;
9115;SDS011;4593;53.652;10.168;2023-03-01T14:19:35;4.43;;;3.40;;
9115;SDS011;4593;53.652;10.168;2023-03-01T14:24:49;5.70;;;3.83;;
9115;SDS011;4593;53.652;10.168;2023-03-01T14:27:20;3.30;;;2.87;;
9115;SDS011;4593;53.652;10.168;2023-03-01T14:29:57;6.37;;;3.57;;
9115;SDS011;4593;53.652;10.168;2023-03-01T14:32:28;5.20;;;4.37;;
9115;SDS011;4593;53.652;10.168;2023-03-01T14:34:55;6.30;;;3.63;;
9115;SDS011;4593;53.652;10.168;2023-03-01T14:37:26;6.00;;;4.27;;
9115;SDS011;4593;53.652;10.168;2023-03-01T14:39:54;4.27;;;3.33;;
9115;SDS011;4593;53.652;10.168;2023-03-01T14:42:21;4.60;;;3.50;;
9115;SDS011;4593;53.652;10.168;2023-03-01T14:44:50;5.37;;;4.03;;
9115;SDS011;4593;53.652;10.168;2023-03-01T14:47:36;7.47;;;4.30;;
9115;SDS011;4593;53.652;10.168;2023-03-01T14:50:08;4.07;;;3.67;;
9115;SDS011;4593;53.652;10.168;2023-03-01T14:52:55;8.80;;;3.97;;
9115;SDS011;4593;53.652;10.168;2023-03-01T14:58:02;4.83;;;3.83;;
9115;SDS011;4593;53.652;10.168;2023-03-01T15:00:36;4.90;;;4.40;;
9115;SDS011;4593;53.652;10.168;2023-03-01T15:03:11;4.27;;;3.43;;
9115;SDS011;4593;53.652;10.168;2023-03-01T15:05:54;4.67;;;4.03;;
9115;SDS011;4593;53.652;10.168;2023-03-01T15:08:21;6.37;;;4.07;;
9115;SDS011;4593;53.652;10.168;2023-03-01T15:10:58;5.57;;;4.37;;
9115;SDS011;4593;53.652;10.168;2023-03-01T15:13:30;6.77;;;4.23;;
9115;SDS011;4593;53.652;10.168;2023-03-01T15:16:01;9.77;;;5.17;;
9115;SDS011;4593;53.652;10.168;2023-03-01T15:18:31;5.10;;;4.53;;
9115;SDS011;4593;53.652;10.168;2023-03-01T15:21:05;8.80;;;5.03;;
9115;SDS011;4593;53.652;10.168;2023-03-01T15:23:56;5.83;;;4.17;;
9115;SDS011;4593;53.652;10.168;2023-03-01T15:26:28;4.70;;;4.20;;
9115;SDS011;4593;53.652;10.168;2023-03-01T15:28:57;5.40;;;4.33;;
9115;SDS011;4593;53.652;10.168;2023-03-01T15:31:26;5.93;;;4.33;;
9115;SDS011;4593;53.652;10.168;2023-03-01T15:34:06;5.87;;;4.93;;
9115;SDS011;4593;53.652;10.168;2023-03-01T15:36:49;6.60;;;4.80;;
9115;SDS011;4593;53.652;10.168;2023-03-01T15:42:02;7.63;;;5.43;;
9115;SDS011;4593;53.652;10.168;2023-03-01T15:44:34;8.57;;;5.43;;
9115;SDS011;4593;53.652;10.168;2023-03-01T15:47:01;8.03;;;5.50;;
9115;SDS011;4593;53.652;10.168;2023-03-01T15:49:46;9.00;;;5.57;;
9115;SDS011;4593;53.652;10.168;2023-03-01T15:52:13;8.70;;;4.80;;
9115;SDS011;4593;53.652;10.168;2023-03-01T15:54:53;5.50;;;4.10;;
9115;SDS011;4593;53.652;10.168;2023-03-01T15:57:24;5.83;;;5.03;;
9115;SDS011;4593;53.652;10.168;2023-03-01T15:59:50;5.30;;;4.37;;
9115;SDS011;4593;53.652;10.168;2023-03-01T16:02:15;4.53;;;3.37;;
9115;SDS011;4593;53.652;10.168;2023-03-01T16:04:41;4.83;;;4.00;;
9115;SDS011;4593;53.652;10.168;2023-03-01T16:07:08;5.80;;;4.00;;
9115;SDS011;4593;53.652;10.168;2023-03-01T16:09:34;5.17;;;3.53;;
9115;SDS011;4593;53.652;10.168;2023-03-01T16:12:00;6.97;;;4.43;;
9115;SDS011;4593;53.652;10.168;2023-03-01T16:14:26;5.83;;;4.13;;
9115;SDS011;4593;53.652;10.168;2023-03-01T16:16:52;4.67;;;3.77;;
9115;SDS011;4593;53.652;10.168;2023-03-01T16:19:18;8.07;;;4.20;;
9115;SDS011;4593;53.652;10.168;2023-03-01T16:21:44;5.97;;;3.93;;
9115;SDS011;4593;53.652;10.168;2023-03-01T16:24:12;5.87;;;3.93;;
9115;SDS011;4593;53.652;10.168;2023-03-01T16:26:38;6.67;;;4.57;;
9115;SDS011;4593;53.652;10.168;2023-03-01T16:29:04;7.63;;;4.53;;
9115;SDS011;4593;53.652;10.168;2023-03-01T16:31:30;6.03;;;4.30;;
9115;SDS011;4593;53.652;10.168;2023-03-01T16:33:57;5.20;;;4.10;;
9115;SDS011;4593;53.652;10.168;2023-03-01T16:36:23;6.63;;;4.53;;
9115;SDS011;4593;53.652;10.168;2023-03-01T16:38:53;8.07;;;4.77;;
9115;SDS011;4593;53.652;10.168;2023-03-01T16:41:20;6.77;;;5.20;;
9115;SDS011;4593;53.652;10.168;2023-03-01T16:43:47;8.83;;;5.13;;
9115;SDS011;4593;53.652;10.168;2023-03-01T16:46:20;7.60;;;4.90;;
9115;SDS011;4593;53.652;10.168;2023-03-01T16:48:48;7.93;;;4.67;;
9115;SDS011;4593;53.652;10.168;2023-03-01T16:51:14;7.07;;;4.80;;
9115;SDS011;4593;53.652;10.168;2023-03-01T16:53:40;5.67;;;4.93;;
9115;SDS011;4593;53.652;10.168;2023-03-01T16:56:07;5.93;;;4.70;;
9115;SDS011;4593;53.652;10.168;2023-03-01T16:58:35;5.27;;;4.10;;
9115;SDS011;4593;53.652;10.168;2023-03-01T17:01:09;7.90;;;4.90;;
9115;SDS011;4593;53.652;10.168;2023-03-01T17:03:41;5.20;;;4.50;;
9115;SDS011;4593;53.652;10.168;2023-03-01T17:06:08;5.30;;;4.10;;
9115;SDS011;4593;53.652;10.168;2023-03-01T17:08:36;5.57;;;4.67;;
9115;SDS011;4593;53.652;10.168;2023-03-01T17:11:20;7.53;;;4.87;;
9115;SDS011;4593;53.652;10.168;2023-03-01T17:13:46;7.93;;;5.93;;
9115;SDS011;4593;53.652;10.168;2023-03-01T17:16:14;6.83;;;5.47;;
9115;SDS011;4593;53.652;10.168;2023-03-01T17:18:42;6.00;;;4.90;;
9115;SDS011;4593;53.652;10.168;2023-03-01T17:21:08;6.87;;;5.47;;
9115;SDS011;4593;53.652;10.168;2023-03-01T17:23:35;7.67;;;4.77;;
9115;SDS011;4593;53.652;10.168;2023-03-01T17:26:03;6.90;;;5.67;;
9115;SDS011;4593;53.652;10.168;2023-03-01T17:28:30;8.37;;;5.93;;
9115;SDS011;4593;53.652;10.168;2023-03-01T17:30:58;8.03;;;5.40;;
9115;SDS011;4593;53.652;10.168;2023-03-01T17:33:26;9.03;;;6.30;;